Time;durP1;ratioP1;P1;durP2;ratioP2;P2;SDS_P1;SDS_P2;PMS_P1;PMS_P2;Temp;Humidity;BMP_temperature;BMP_pressure;BME280_temperature;BME280_humidity;BME280_pressure;Samples;Min_cycle;Max_cycle;Signal;HPM_P1;HPM_P2
2021/01/07 00:01:20;;;;;;;9.75;5.50;;;;;;;;;;6332304;22;20420;-75
2021/01/07 00:03:46;;;;;;;9.05;5.05;;;;;;;;;;6332377;22;19999;-75
2021/01/07 00:06:12;;;;;;;6.20;3.80;;;;;;;;;;6331978;22;20424;-74
2021/01/07 00:08:39;;;;;;;6.30;3.80;;;;;;;;;;6304503;22;20477;-75
2021/01/07 00:11:05;;;;;;;5.82;4.05;;;;;;;;;;6304962;22;20052;-74
2021/01/07 00:13:31;;;;;;;7.25;4.22;;;;;;;;;;6332924;22;20022;-75
2021/01/07 00:15:57;;;;;;;8.05;4.10;;;;;;;;;;6304106;22;20003;-74
2021/01/07 00:18:23;;;;;;;6.85;4.22;;;;;;;;;;6332843;22;20423;-75
2021/01/07 00:20:49;;;;;;;6.18;3.97;;;;;;;;;;6304886;22;20006;-75
2021/01/07 00:23:16;;;;;;;7.10;4.35;;;;;;;;;;6305086;22;20014;-74
2021/01/07 00:25:46;;;;;;;8.15;4.50;;;;;;;;;;6331963;22;20010;-75
2021/01/07 00:28:12;;;;;;;7.95;4.82;;;;;;;;;;6332556;22;20006;-75
2021/01/07 00:30:38;;;;;;;6.82;4.55;;;;;;;;;;6331692;22;20331;-74
2021/01/07 00:33:04;;;;;;;7.82;4.43;;;;;;;;;;6331877;22;20007;-74
2021/01/07 00:35:30;;;;;;;7.60;4.75;;;;;;;;;;6303101;22;19994;-74
2021/01/07 00:37:56;;;;;;;6.93;4.55;;;;;;;;;;6331099;22;20006;-74
2021/01/07 00:40:22;;;;;;;7.15;4.70;;;;;;;;;;6332504;22;20451;-75
2021/01/07 00:42:48;;;;;;;7.00;4.13;;;;;;;;;;6305029;22;20002;-73
2021/01/07 00:45:14;;;;;;;7.65;4.50;;;;;;;;;;6304028;22;20013;-75
2021/01/07 00:47:40;;;;;;;7.93;4.65;;;;;;;;;;6305398;22;20007;-74
2021/01/07 00:50:07;;;;;;;8.07;4.47;;;;;;;;;;6314941;22;20014;-75
2021/01/07 00:52:33;;;;;;;8.10;4.70;;;;;;;;;;6332318;22;19999;-75
2021/01/07 00:54:59;;;;;;;7.20;4.80;;;;;;;;;;6329982;22;20021;-74
2021/01/07 00:57:27;;;;;;;7.97;4.63;;;;;;;;;;6332760;22;20006;-74
2021/01/07 00:59:53;;;;;;;10.20;4.78;;;;;;;;;;6330245;22;20033;-75
2021/01/07 01:02:19;;;;;;;6.65;4.32;;;;;;;;;;6332439;22;20006;-74
2021/01/07 01:04:45;;;;;;;7.60;4.85;;;;;;;;;;6331441;22;19999;-74
2021/01/07 01:07:11;;;;;;;8.55;5.07;;;;;;;;;;6332424;22;20005;-74
2021/01/07 01:09:37;;;;;;;6.68;4.80;;;;;;;;;;6332339;22;20003;-74
2021/01/07 01:12:03;;;;;;;7.20;4.68;;;;;;;;;;6330850;22;19994;-75
2021/01/07 01:14:29;;;;;;;7.38;4.78;;;;;;;;;;6329185;22;20450;-75
2021/01/07 01:16:55;;;;;;;7.60;4.97;;;;;;;;;;6332672;22;20027;-73
2021/01/07 01:19:21;;;;;;;9.32;5.13;;;;;;;;;;6330537;22;20029;-74
2021/01/07 01:21:54;;;;;;;7.03;4.55;;;;;;;;;;6332137;22;19999;-75
2021/01/07 01:24:20;;;;;;;6.68;4.70;;;;;;;;;;6330345;22;20013;-75
2021/01/07 01:26:46;;;;;;;7.32;4.80;;;;;;;;;;6331080;22;20034;-74
2021/01/07 01:29:13;;;;;;;7.45;5.30;;;;;;;;;;6330446;22;20003;-74
2021/01/07 01:31:39;;;;;;;8.77;5.20;;;;;;;;;;6332013;22;20072;-75
2021/01/07 01:34:06;;;;;;;9.10;5.55;;;;;;;;;;6331403;22;19995;-73
2021/01/07 01:36:32;;;;;;;6.72;4.72;;;;;;;;;;6330827;22;20388;-74
2021/01/07 01:38:58;;;;;;;8.88;5.20;;;;;;;;;;6331165;22;19999;-74
2021/01/07 01:41:24;;;;;;;7.75;5.07;;;;;;;;;;6332419;22;19994;-74
2021/01/07 01:43:50;;;;;;;8.02;5.30;;;;;;;;;;6330196;22;20003;-73
2021/01/07 01:46:16;;;;;;;8.27;5.60;;;;;;;;;;6329725;22;20010;-75
2021/01/07 01:48:42;;;;;;;7.45;5.32;;;;;;;;;;6332011;22;19999;-75
2021/01/07 01:51:09;;;;;;;7.75;5.07;;;;;;;;;;6330100;22;20010;-76
2021/01/07 01:53:36;;;;;;;7.75;5.47;;;;;;;;;;6332649;22;20041;-74
2021/01/07 01:56:04;;;;;;;;;;;;;;;;;;6330156;22;20002;-74
2021/01/07 01:58:30;;;;;;;8.20;5.43;;;;;;;;;;6332238;22;19903;-74
2021/01/07 02:00:56;;;;;;;10.35;5.97;;;;;;;;;;6331389;22;20023;-74
2021/01/07 02:03:22;;;;;;;7.97;5.53;;;;;;;;;;6331992;22;20002;-75
2021/01/07 02:05:49;;;;;;;8.50;5.38;;;;;;;;;;6331336;22;20003;-74
2021/01/07 02:08:16;;;;;;;9.30;5.63;;;;;;;;;;6330037;22;20083;-75
2021/01/07 02:10:42;;;;;;;8.02;5.72;;;;;;;;;;6330206;22;20006;-74
2021/01/07 02:13:08;;;;;;;7.63;5.30;;;;;;;;;;6330239;22;19995;-73
2021/01/07 02:15:41;;;;;;;9.75;6.13;;;;;;;;;;6330910;22;19999;-75
2021/01/07 02:18:10;;;;;;;10.30;6.32;;;;;;;;;;6330255;22;20010;-75
2021/01/07 02:20:38;;;;;;;9.18;6.22;;;;;;;;;;6330115;22;20013;-73
2021/01/07 02:23:04;;;;;;;11.18;6.80;;;;;;;;;;6324807;22;20002;-74
2021/01/07 02:25:30;;;;;;;9.88;6.60;;;;;;;;;;6330515;22;19999;-75
2021/01/07 02:27:56;;;;;;;10.50;6.63;;;;;;;;;;6330107;22;20007;-75
2021/01/07 02:30:22;;;;;;;9.95;6.78;;;;;;;;;;6330025;22;20007;-74
2021/01/07 02:32:48;;;;;;;9.57;6.57;;;;;;;;;;6332066;22;20048;-74
2021/01/07 02:35:15;;;;;;;11.80;7.32;;;;;;;;;;6331014;22;20064;-75
2021/01/07 02:37:41;;;;;;;10.85;7.45;;;;;;;;;;6331553;22;20083;-75
2021/01/07 02:40:08;;;;;;;11.32;6.88;;;;;;;;;;6330176;22;20051;-73
2021/01/07 02:42:34;;;;;;;11.30;6.97;;;;;;;;;;6331830;22;19999;-74
2021/01/07 02:45:00;;;;;;;11.05;6.70;;;;;;;;;;6330610;22;20010;-75
2021/01/07 02:47:26;;;;;;;12.10;7.63;;;;;;;;;;6329989;22;20025;-75
2021/01/07 02:49:52;;;;;;;12.75;8.32;;;;;;;;;;6330316;22;20003;-75
2021/01/07 02:52:18;;;;;;;12.88;8.27;;;;;;;;;;6329595;22;20077;-75
2021/01/07 02:54:44;;;;;;;12.18;7.70;;;;;;;;;;6330619;22;20023;-73
2021/01/07 02:57:10;;;;;;;9.95;6.95;;;;;;;;;;6330131;22;20377;-74
2021/01/07 02:59:36;;;;;;;10.75;7.68;;;;;;;;;;6331636;22;20455;-74
2021/01/07 03:02:02;;;;;;;10.88;7.43;;;;;;;;;;6332022;22;20052;-74
2021/01/07 03:04:28;;;;;;;11.73;7.65;;;;;;;;;;6332710;22;20048;-74
2021/01/07 03:06:54;;;;;;;12.70;7.40;;;;;;;;;;6334857;22;20006;-75
2021/01/07 03:09:20;;;;;;;11.32;7.55;;;;;;;;;;6334959;22;20424;-73
2021/01/07 03:11:46;;;;;;;14.93;8.52;;;;;;;;;;6333374;22;20006;-75
2021/01/07 03:14:12;;;;;;;12.77;8.10;;;;;;;;;;6333965;22;20412;-75
2021/01/07 03:16:38;;;;;;;12.75;7.95;;;;;;;;;;6334987;22;19999;-74
2021/01/07 03:19:04;;;;;;;10.60;7.32;;;;;;;;;;6335095;22;20519;-74
2021/01/07 03:21:30;;;;;;;12.07;7.68;;;;;;;;;;6332820;22;20086;-75
2021/01/07 03:23:56;;;;;;;13.25;8.05;;;;;;;;;;6333197;22;20335;-75
2021/01/07 03:26:22;;;;;;;15.48;9.80;;;;;;;;;;6332851;22;20503;-74
2021/01/07 03:28:48;;;;;;;12.60;8.18;;;;;;;;;;6333051;22;20003;-75
2021/01/07 03:31:14;;;;;;;11.85;8.13;;;;;;;;;;6334924;22;20018;-75
2021/01/07 03:33:40;;;;;;;14.63;8.65;;;;;;;;;;6333105;22;20002;-75
2021/01/07 03:36:07;;;;;;;13.50;8.80;;;;;;;;;;6334163;22;20003;-74
2021/01/07 03:38:32;;;;;;;12.63;7.93;;;;;;;;;;6335236;22;20026;-74
2021/01/07 03:40:58;;;;;;;12.65;8.48;;;;;;;;;;6335130;22;20454;-75
2021/01/07 03:43:24;;;;;;;13.48;8.30;;;;;;;;;;6336729;22;20082;-74
2021/01/07 03:45:50;;;;;;;12.20;8.52;;;;;;;;;;6335787;22;20432;-73
2021/01/07 03:48:16;;;;;;;12.35;8.90;;;;;;;;;;6336521;22;20031;-74
2021/01/07 03:50:42;;;;;;;12.70;8.35;;;;;;;;;;6334474;22;20489;-75
2021/01/07 03:53:08;;;;;;;12.63;8.43;;;;;;;;;;6336653;22;20102;-74
2021/01/07 03:55:34;;;;;;;13.70;8.27;;;;;;;;;;6335882;22;20010;-73
2021/01/07 03:58:00;;;;;;;13.60;7.90;;;;;;;;;;6336270;22;20589;-74
2021/01/07 04:00:26;;;;;;;12.10;8.00;;;;;;;;;;6336453;22;19998;-74
2021/01/07 04:02:52;;;;;;;13.00;8.52;;;;;;;;;;6332526;22;20010;-74
2021/01/07 04:05:18;;;;;;;14.18;9.15;;;;;;;;;;6332640;22;20496;-75
2021/01/07 04:07:44;;;;;;;12.77;8.63;;;;;;;;;;6334026;22;20358;-75
2021/01/07 04:10:10;;;;;;;13.13;8.65;;;;;;;;;;6333780;22;20497;-75
2021/01/07 04:12:36;;;;;;;15.73;9.50;;;;;;;;;;6332017;22;19994;-74
2021/01/07 04:15:04;;;;;;;15.65;9.25;;;;;;;;;;6332134;22;20022;-75
2021/01/07 04:17:31;;;;;;;12.93;8.65;;;;;;;;;;6332970;22;20006;-73
2021/01/07 04:19:57;;;;;;;14.35;8.98;;;;;;;;;;6332437;22;20014;-74
2021/01/07 04:22:23;;;;;;;17.50;9.02;;;;;;;;;;6331804;22;20007;-74
2021/01/07 04:24:49;;;;;;;17.00;9.48;;;;;;;;;;6332288;22;20379;-74
2021/01/07 04:27:15;;;;;;;13.38;9.00;;;;;;;;;;6331393;22;20018;-73
2021/01/07 04:29:41;;;;;;;16.15;9.55;;;;;;;;;;6332722;22;20002;-74
2021/01/07 04:32:07;;;;;;;15.55;9.98;;;;;;;;;;6332685;22;19998;-73
2021/01/07 04:34:33;;;;;;;15.45;9.18;;;;;;;;;;6331620;22;20470;-73
2021/01/07 04:36:59;;;;;;;15.20;9.73;;;;;;;;;;6331219;22;20005;-76
2021/01/07 04:39:25;;;;;;;13.30;9.07;;;;;;;;;;6330819;22;20010;-76
2021/01/07 04:41:51;;;;;;;14.50;9.00;;;;;;;;;;6332711;22;20041;-73
2021/01/07 04:44:17;;;;;;;16.63;9.82;;;;;;;;;;6330060;22;20007;-76
2021/01/07 04:46:43;;;;;;;14.40;9.30;;;;;;;;;;6332521;22;19995;-76
2021/01/07 04:49:09;;;;;;;13.75;8.85;;;;;;;;;;6332011;22;20037;-73
2021/01/07 04:51:35;;;;;;;15.05;9.82;;;;;;;;;;6332537;22;20006;-74
2021/01/07 04:54:01;;;;;;;16.65;9.57;;;;;;;;;;6304354;22;20026;-74
2021/01/07 04:56:27;;;;;;;13.63;8.80;;;;;;;;;;6331745;22;20002;-73
2021/01/07 04:58:53;;;;;;;14.13;8.68;;;;;;;;;;6305060;22;20060;-74
2021/01/07 05:01:19;;;;;;;15.98;9.80;;;;;;;;;;6304929;22;20089;-74
2021/01/07 05:03:46;;;;;;;16.20;9.73;;;;;;;;;;6332575;22;20009;-74
2021/01/07 05:06:13;;;;;;;15.25;9.90;;;;;;;;;;6304415;22;20006;-73
2021/01/07 05:08:39;;;;;;;13.38;9.00;;;;;;;;;;6332578;22;20005;-74
2021/01/07 05:11:05;;;;;;;15.27;9.52;;;;;;;;;;6304400;22;20007;-74
2021/01/07 05:13:31;;;;;;;14.15;8.80;;;;;;;;;;6332582;22;20006;-74
2021/01/07 05:15:57;;;;;;;15.23;10.15;;;;;;;;;;6331751;22;20026;-73
2021/01/07 05:18:25;;;;;;;15.60;10.00;;;;;;;;;;6305127;22;20093;-73
2021/01/07 05:20:51;;;;;;;15.95;10.15;;;;;;;;;;6332455;22;20003;-74
2021/01/07 05:23:20;;;;;;;15.05;9.70;;;;;;;;;;6304781;22;20007;-74
2021/01/07 05:25:46;;;;;;;15.63;9.98;;;;;;;;;;6304045;22;20002;-73
2021/01/07 05:28:12;;;;;;;14.45;9.18;;;;;;;;;;6304740;22;20060;-73
2021/01/07 05:30:38;;;;;;;15.38;9.70;;;;;;;;;;6332220;22;20316;-76
2021/01/07 05:33:05;;;;;;;14.90;9.30;;;;;;;;;;6332159;22;20042;-74
2021/01/07 05:35:32;;;;;;;15.73;9.73;;;;;;;;;;6303545;22;19999;-74
2021/01/07 05:37:59;;;;;;;17.17;10.00;;;;;;;;;;6332381;22;19995;-74
2021/01/07 05:40:26;;;;;;;14.65;9.50;;;;;;;;;;6332164;22;20014;-74
2021/01/07 05:42:55;;;;;;;14.10;9.43;;;;;;;;;;6303953;22;20011;-72
2021/01/07 05:45:21;;;;;;;15.82;9.95;;;;;;;;;;6303791;22;20007;-74
2021/01/07 05:47:51;;;;;;;15.23;9.45;;;;;;;;;;6332127;22;20002;-73
2021/01/07 05:50:18;;;;;;;15.02;9.15;;;;;;;;;;6331785;22;20094;-74
2021/01/07 05:52:45;;;;;;;15.30;9.15;;;;;;;;;;6304241;22;20080;-74
2021/01/07 05:55:15;;;;;;;16.90;9.98;;;;;;;;;;6331338;22;20074;-74
2021/01/07 05:57:41;;;;;;;14.82;8.95;;;;;;;;;;6304339;22;19998;-73
2021/01/07 06:00:08;;;;;;;15.68;9.38;;;;;;;;;;6331693;22;20531;-74
2021/01/07 06:02:36;;;;;;;16.15;10.00;;;;;;;;;;6304609;22;20034;-73
2021/01/07 06:05:04;;;;;;;16.45;9.63;;;;;;;;;;6330949;22;19998;-74
2021/01/07 06:07:31;;;;;;;13.40;9.13;;;;;;;;;;6332019;22;20082;-73
2021/01/07 06:09:57;;;;;;;14.82;9.05;;;;;;;;;;6331902;22;19998;-74
2021/01/07 06:12:23;;;;;;;14.70;9.57;;;;;;;;;;6332216;22;20014;-73
2021/01/07 06:14:49;;;;;;;15.32;9.57;;;;;;;;;;6331416;22;20318;-74
2021/01/07 06:17:15;;;;;;;17.90;9.73;;;;;;;;;;6331931;22;20006;-74
2021/01/07 06:19:45;;;;;;;19.17;11.93;;;;;;;;;;6332404;22;20009;-74
2021/01/07 06:22:20;;;;;;;18.38;11.80;;;;;;;;;;6331712;22;20003;-74
2021/01/07 06:24:50;;;;;;;18.92;11.77;;;;;;;;;;6303539;22;20015;-73
2021/01/07 06:27:23;;;;;;;17.80;11.57;;;;;;;;;;6303883;22;20006;-75
2021/01/07 06:29:53;;;;;;;17.08;11.10;;;;;;;;;;6331904;22;20029;-73
2021/01/07 06:32:19;;;;;;;17.40;10.25;;;;;;;;;;6304116;22;20082;-75
2021/01/07 06:34:46;;;;;;;17.38;10.50;;;;;;;;;;6330899;22;20007;-75
2021/01/07 06:37:12;;;;;;;18.90;10.15;;;;;;;;;;6304287;22;20516;-75
2021/01/07 06:39:42;;;;;;;17.08;10.95;;;;;;;;;;6304464;22;20033;-75
2021/01/07 06:42:08;;;;;;;16.75;10.25;;;;;;;;;;6304300;22;19999;-75
2021/01/07 06:44:35;;;;;;;16.92;10.52;;;;;;;;;;6303401;22;20011;-73
2021/01/07 06:47:01;;;;;;;15.25;9.80;;;;;;;;;;6331618;22;19999;-74
2021/01/07 06:49:27;;;;;;;16.25;10.35;;;;;;;;;;6305224;22;20045;-75
2021/01/07 06:51:55;;;;;;;18.08;10.75;;;;;;;;;;6331602;22;19999;-75
2021/01/07 06:54:22;;;;;;;17.58;11.05;;;;;;;;;;6330889;22;20006;-74
2021/01/07 06:56:52;;;;;;;26.10;11.60;;;;;;;;;;6331769;22;20002;-74
2021/01/07 06:59:20;;;;;;;20.90;11.93;;;;;;;;;;6331911;22;20064;-74
2021/01/07 07:01:53;;;;;;;18.00;11.05;;;;;;;;;;6331829;22;19999;-74
2021/01/07 07:04:29;;;;;;;20.92;12.52;;;;;;;;;;6329036;22;20060;-75
2021/01/07 07:07:03;;;;;;;22.05;13.05;;;;;;;;;;6331753;22;20365;-74
2021/01/07 07:09:37;;;;;;;21.35;11.70;;;;;;;;;;6331262;22;20003;-74
2021/01/07 07:12:03;;;;;;;16.67;10.70;;;;;;;;;;6332677;22;19995;-74
2021/01/07 07:14:32;;;;;;;18.75;11.05;;;;;;;;;;6332544;22;20041;-74
2021/01/07 07:16:58;;;;;;;16.63;10.70;;;;;;;;;;6333157;22;20074;-74
2021/01/07 07:19:25;;;;;;;16.83;10.35;;;;;;;;;;6333520;22;19999;-74
2021/01/07 07:22:00;;;;;;;17.10;10.32;;;;;;;;;;6333353;22;20002;-74
2021/01/07 07:24:36;;;;;;;17.75;10.05;;;;;;;;;;6330901;22;20075;-74
2021/01/07 07:27:04;;;;;;;16.02;10.00;;;;;;;;;;6333729;22;20059;-74
2021/01/07 07:29:32;;;;;;;18.05;10.75;;;;;;;;;;6333273;22;20003;-76
2021/01/07 07:31:58;;;;;;;18.52;12.00;;;;;;;;;;6331799;22;19999;-74
2021/01/07 07:34:29;;;;;;;19.90;12.10;;;;;;;;;;6332547;22;20009;-72
2021/01/07 07:36:55;;;;;;;17.67;10.85;;;;;;;;;;6331594;22;20029;-74
2021/01/07 07:39:25;;;;;;;18.40;10.80;;;;;;;;;;6333132;22;20342;-74
2021/01/07 07:42:04;;;;;;;16.77;10.60;;;;;;;;;;6331471;22;20010;-74
2021/01/07 07:44:30;;;;;;;17.77;10.43;;;;;;;;;;6332452;22;20022;-74
2021/01/07 07:46:56;;;;;;;21.73;11.57;;;;;;;;;;6332933;22;20006;-74
2021/01/07 07:49:24;;;;;;;25.20;14.30;;;;;;;;;;6333232;22;20007;-74
2021/01/07 07:51:51;;;;;;;;;;;;;;;;;;6306115;22;20006;-74
2021/01/07 07:54:17;;;;;;;20.65;12.07;;;;;;;;;;6304576;22;19997;-74
2021/01/07 07:56:43;;;;;;;21.23;12.77;;;;;;;;;;6333585;22;20024;-74
2021/01/07 07:59:12;;;;;;;19.80;12.10;;;;;;;;;;6333129;22;19999;-74
2021/01/07 08:01:42;;;;;;;20.08;12.05;;;;;;;;;;6304933;22;20023;-75
2021/01/07 08:04:12;;;;;;;18.63;11.27;;;;;;;;;;6332634;22;19995;-74
2021/01/07 08:06:38;;;;;;;20.25;12.82;;;;;;;;;;6332686;22;20002;-74
2021/01/07 08:09:08;;;;;;;19.67;11.15;;;;;;;;;;6332502;22;20048;-74
2021/01/07 08:12:01;;;;;;;18.27;11.45;;;;;;;;;;6305259;22;20003;-73
2021/01/07 08:14:30;;;;;;;18.77;11.50;;;;;;;;;;6325684;22;20078;-73
2021/01/07 08:16:57;;;;;;;17.30;11.10;;;;;;;;;;6333064;22;20452;-74
2021/01/07 08:19:33;;;;;;;18.15;11.07;;;;;;;;;;6305306;22;20039;-74
2021/01/07 08:21:59;;;;;;;16.70;11.00;;;;;;;;;;6333024;22;19999;-74
2021/01/07 08:24:25;;;;;;;17.85;11.35;;;;;;;;;;6331390;22;20007;-74
2021/01/07 08:27:01;;;;;;;18.90;10.88;;;;;;;;;;6305128;22;20065;-74
2021/01/07 08:29:27;;;;;;;19.10;10.85;;;;;;;;;;6332658;22;20002;-73
2021/01/07 08:31:53;;;;;;;16.25;10.38;;;;;;;;;;6332501;22;20445;-74
2021/01/07 08:34:20;;;;;;;17.75;11.40;;;;;;;;;;6304995;22;20002;-74
2021/01/07 08:36:46;;;;;;;18.35;10.68;;;;;;;;;;6333226;22;20029;-74
2021/01/07 08:39:16;;;;;;;18.00;11.45;;;;;;;;;;6304858;22;20002;-73
2021/01/07 08:41:45;;;;;;;19.67;11.52;;;;;;;;;;6332437;22;20025;-75
2021/01/07 08:44:11;;;;;;;18.60;10.90;;;;;;;;;;6331838;22;20084;-75
2021/01/07 08:46:40;;;;;;;17.80;11.20;;;;;;;;;;6332683;22;20605;-76
2021/01/07 08:49:16;;;;;;;20.90;11.38;;;;;;;;;;6304926;22;19995;-74
2021/01/07 08:51:43;;;;;;;18.20;11.48;;;;;;;;;;6332875;22;19998;-75
2021/01/07 08:54:10;;;;;;;19.55;12.43;;;;;;;;;;6331834;22;20002;-74
2021/01/07 08:56:36;;;;;;;17.52;11.32;;;;;;;;;;6332957;22;20070;-75
2021/01/07 08:59:21;;;;;;;18.53;12.50;;;;;;;;;;6333043;22;20002;-74
2021/01/07 09:01:48;;;;;;;20.25;11.68;;;;;;;;;;6304578;22;20214;-75
2021/01/07 09:04:23;;;;;;;21.58;11.88;;;;;;;;;;6331971;22;19995;-76
2021/01/07 09:06:53;;;;;;;21.45;11.98;;;;;;;;;;6332370;22;20052;-76
2021/01/07 09:09:20;;;;;;;18.83;12.30;;;;;;;;;;6304409;22;20359;-75
2021/01/07 09:11:45;;;;;;;22.25;13.25;;;;;;;;;;6304831;22;20030;-74
2021/01/07 09:14:11;;;;;;;20.23;12.98;;;;;;;;;;6331779;22;20436;-75
2021/01/07 09:16:37;;;;;;;19.80;12.43;;;;;;;;;;6305211;22;20059;-74
2021/01/07 09:19:07;;;;;;;19.80;12.40;;;;;;;;;;6332480;22;20439;-75
2021/01/07 09:21:34;;;;;;;17.75;12.25;;;;;;;;;;6304619;22;19998;-74
2021/01/07 09:24:00;;;;;;;21.75;12.70;;;;;;;;;;6331879;22;20003;-75
2021/01/07 09:26:27;;;;;;;19.83;12.15;;;;;;;;;;6332246;22;19995;-75
2021/01/07 09:28:53;;;;;;;18.83;12.18;;;;;;;;;;6304527;22;20009;-74
2021/01/07 09:31:19;;;;;;;19.27;12.00;;;;;;;;;;6304267;22;20327;-74
2021/01/07 09:33:45;;;;;;;18.90;11.57;;;;;;;;;;6332422;22;20026;-75
2021/01/07 09:36:11;;;;;;;19.85;12.55;;;;;;;;;;6331293;22;20003;-76
2021/01/07 09:38:37;;;;;;;20.10;12.60;;;;;;;;;;6332315;22;20001;-75
2021/01/07 09:41:03;;;;;;;19.42;12.50;;;;;;;;;;6332211;22;20591;-74
2021/01/07 09:43:33;;;;;;;18.38;12.10;;;;;;;;;;6304696;22;20017;-74
2021/01/07 09:45:59;;;;;;;18.85;11.93;;;;;;;;;;6331313;22;20056;-74
2021/01/07 09:48:25;;;;;;;21.25;11.63;;;;;;;;;;6332500;22;20014;-74
2021/01/07 09:50:51;;;;;;;16.02;10.93;;;;;;;;;;6332107;22;20011;-75
2021/01/07 09:53:20;;;;;;;16.55;10.32;;;;;;;;;;6332087;22;20485;-74
2021/01/07 09:55:46;;;;;;;16.77;10.73;;;;;;;;;;6331453;22;20003;-75
2021/01/07 09:58:12;;;;;;;18.05;11.35;;;;;;;;;;6304411;22;20010;-75
2021/01/07 10:00:38;;;;;;;22.63;11.93;;;;;;;;;;6331694;22;20029;-75
2021/01/07 10:03:04;;;;;;;15.95;10.88;;;;;;;;;;6332017;22;20451;-75
2021/01/07 10:05:31;;;;;;;18.58;11.40;;;;;;;;;;6331409;22;20003;-75
2021/01/07 10:07:59;;;;;;;15.65;11.10;;;;;;;;;;6304407;22;20028;-74
2021/01/07 10:10:25;;;;;;;19.67;13.23;;;;;;;;;;6331519;22;20074;-73
2021/01/07 10:12:51;;;;;;;20.15;14.02;;;;;;;;;;6304435;22;20033;-76
2021/01/07 10:15:17;;;;;;;21.48;15.57;;;;;;;;;;6331058;22;20365;-75
2021/01/07 10:17:43;;;;;;;21.02;13.70;;;;;;;;;;6332135;22;20432;-77
2021/01/07 10:20:09;;;;;;;21.08;12.63;;;;;;;;;;6331955;22;20005;-76
2021/01/07 10:22:37;;;;;;;21.85;13.38;;;;;;;;;;6331909;22;20200;-76
2021/01/07 10:25:06;;;;;;;22.30;13.63;;;4.00;99.90;;;;;;6331644;22;20127;-75
2021/01/07 10:27:32;;;;;;;19.90;13.15;;;3.80;99.90;;;;;;6332054;22;19999;-74
2021/01/07 10:29:59;;;;;;;20.00;11.88;;;3.80;99.90;;;;;;6331460;22;20003;-76
2021/01/07 10:32:26;;;;;;;17.88;11.63;;;3.90;99.90;;;;;;6304558;22;20003;-75
2021/01/07 10:34:52;;;;;;;18.38;12.38;;;3.80;99.90;;;;;;6303505;22;20472;-75
2021/01/07 10:37:23;;;;;;;20.42;13.32;;;3.80;99.90;;;;;;6299595;22;20089;-74
2021/01/07 10:39:50;;;;;;;18.75;12.52;;;3.80;99.90;;;;;;6331567;22;20571;-75
2021/01/07 10:42:17;;;;;;;22.00;13.68;;;3.90;99.90;;;;;;6331300;22;20052;-75
2021/01/07 10:44:44;;;;;;;19.70;12.55;;;4.10;99.90;;;;;;6302987;22;20436;-75
2021/01/07 10:47:11;;;;;;;21.08;12.55;;;4.00;99.90;;;;;;6332489;22;19998;-74
2021/01/07 10:49:38;;;;;;;19.33;12.43;;;;;;;;;;6333608;22;20038;-76
2021/01/07 10:52:10;;;;;;;19.20;12.77;;;;;;;;;;6332751;22;19995;-76
2021/01/07 10:54:51;;;;;;;19.35;12.93;;;;;;;;;;6332454;22;19999;-75
2021/01/07 10:57:23;;;;;;;15.80;10.55;;;;;;;;;;6333684;22;20052;-75
2021/01/07 11:00:04;;;;;;;16.42;12.15;;;;;;;;;;6333069;22;20007;-75
2021/01/07 11:02:49;;;;;;;17.25;11.77;;;;;;;;;;6305804;22;20023;-77
2021/01/07 11:05:18;;;;;;;18.25;11.65;;;;;;;;;;6332655;22;20001;-76
2021/01/07 11:07:47;;;;;;;20.80;13.52;;;;;;;;;;6332628;22;20594;-75
2021/01/07 11:10:14;;;;;;;20.15;13.15;;;;;;;;;;6305592;22;20006;-75
2021/01/07 11:12:41;;;;;;;17.80;11.65;;;;;;;;;;6333038;22;20040;-74
2021/01/07 11:15:12;;;;;;;19.67;12.50;;;;;;;;;;6332452;22;20018;-76
2021/01/07 11:17:41;;;;;;;17.90;11.35;;;;;;;;;;6306078;22;20930;-75
2021/01/07 11:20:08;;;;;;;19.58;12.15;;;;;;;;;;6333394;22;20003;-75
2021/01/07 11:22:35;;;;;;;18.45;12.13;;;;;;;;;;6332570;22;20010;-75
2021/01/07 11:25:02;;;;;;;20.33;12.50;;;;;;;;;;6305094;22;20335;-76
2021/01/07 11:27:30;;;;;;;18.77;11.63;;;;;;;;;;6305706;22;20474;-75
2021/01/07 11:29:56;;;;;;;18.67;11.05;;;;;;;;;;6332725;22;20010;-75
2021/01/07 11:32:23;;;;;;;17.30;11.55;;;;;;;;;;6305349;22;19999;-75
2021/01/07 11:34:49;;;;;;;17.13;10.75;;;;;;;;;;6332036;22;19995;-75
2021/01/07 11:37:24;;;;;;;19.33;12.10;;;;;;;;;;6333687;22;20423;-75
2021/01/07 11:39:50;;;;;;;20.63;12.93;;;;;;;;;;6333622;22;20480;-78
2021/01/07 11:42:25;;;;;;;17.20;11.73;;;;;;;;;;6334322;22;20512;-75
2021/01/07 11:45:11;;;;;;;19.45;12.18;;;;;;;;;;6331766;22;20009;-75
2021/01/07 11:47:41;;;;;;;20.13;12.35;;;;;;;;;;6333124;22;20432;-75
2021/01/07 11:50:08;;;;;;;18.23;12.15;;;;;;;;;;6332889;22;20384;-74
2021/01/07 11:52:36;;;;;;;19.85;12.38;;;;;;;;;;6332791;22;20045;-74
2021/01/07 11:55:02;;;;;;;17.23;11.98;;;;;;;;;;6332626;22;20025;-73
2021/01/07 11:57:32;;;;;;;16.95;10.88;;;;;;;;;;6333151;22;20033;-75
2021/01/07 11:59:58;;;;;;;19.55;12.02;;;;;;;;;;6305425;22;20003;-75
2021/01/07 12:02:24;;;;;;;19.17;12.13;;;;;;;;;;6332652;22;20009;-74
2021/01/07 12:04:51;;;;;;;17.60;11.80;;;;;;;;;;6304127;22;20339;-75
2021/01/07 12:07:26;;;;;;;16.75;11.23;;;;;;;;;;6332825;22;20025;-76
2021/01/07 12:09:53;;;;;;;18.92;11.68;;;;;;;;;;6332896;22;20517;-76
2021/01/07 12:12:20;;;;;;;19.83;12.50;;;;;;;;;;6332472;22;20035;-74
2021/01/07 12:14:47;;;;;;;24.45;14.95;;;;;;;;;;6331477;22;20026;-74
2021/01/07 12:17:14;;;;;;;24.42;13.85;;;;;;;;;;6333017;22;20018;-75
2021/01/07 12:19:41;;;;;;;18.63;11.02;;;;;;;;;;6304512;22;20007;-75
2021/01/07 12:22:08;;;;;;;20.77;12.38;;;;;;;;;;6332184;22;20081;-74
2021/01/07 12:24:35;;;;;;;18.95;11.90;;;;;;;;;;6331842;22;20003;-74
2021/01/07 12:27:01;;;;;;;21.60;12.63;;;;;;;;;;6332394;22;20028;-75
2021/01/07 12:29:28;;;;;;;17.98;11.85;;;;;;;;;;6332061;22;19999;-75
2021/01/07 12:31:58;;;;;;;17.92;11.60;;;;;;;;;;6332096;22;20048;-74
2021/01/07 12:34:42;;;;;;;17.63;12.27;;;;;;;;;;6331714;22;20463;-74
2021/01/07 12:37:10;;;;;;;22.55;12.52;;;;;;;;;;6332364;22;20006;-75
2021/01/07 12:39:55;;;;;;;21.55;11.45;;;;;;;;;;6304784;22;20392;-75
2021/01/07 12:42:23;;;;;;;16.27;11.20;;;;;;;;;;6331941;22;20006;-75
2021/01/07 12:44:50;;;;;;;17.95;11.48;;;;;;;;;;6303788;22;20003;-74
2021/01/07 12:47:16;;;;;;;16.92;11.43;;;;;;;;;;6332487;22;20002;-76
2021/01/07 12:49:45;;;;;;;20.42;12.05;;;;;;;;;;6331982;22;20003;-76
2021/01/07 12:52:12;;;;;;;16.02;11.23;;;;;;;;;;6332191;22;20432;-76
2021/01/07 12:54:38;;;;;;;18.55;12.35;;;;;;;;;;6304007;22;20009;-75
2021/01/07 12:57:20;;;;;;;16.27;10.50;;;;;;;;;;6332432;22;20003;-76
2021/01/07 12:59:52;;;;;;;18.83;11.38;;;;;;;;;;6304445;22;20014;-75
2021/01/07 13:02:21;;;;;;;17.40;11.27;;;;;;;;;;6304489;22;20003;-75
2021/01/07 13:04:49;;;;;;;19.30;12.35;;;;;;;;;;6303082;22;20009;-76
2021/01/07 13:07:15;;;;;;;18.40;12.25;;;;;;;;;;6332161;22;20427;-76
2021/01/07 13:09:43;;;;;;;18.08;12.13;;;;;;;;;;6331747;22;19999;-75
2021/01/07 13:12:09;;;;;;;20.35;12.75;;;;;;;;;;6303238;22;20022;-74
2021/01/07 13:14:36;;;;;;;18.17;12.48;;;;;;;;;;6331200;22;20054;-76
2021/01/07 13:17:02;;;;;;;20.47;13.40;;;;;;;;;;6332523;22;19995;-75
2021/01/07 13:19:28;;;;;;;19.75;13.32;;;;;;;;;;6301155;22;19998;-76
2021/01/07 13:21:54;;;;;;;21.08;13.07;;;;;;;;;;6332538;22;20005;-76
2021/01/07 13:24:21;;;;;;;21.60;13.10;;;;;;;;;;6331381;22;20007;-75
2021/01/07 13:26:48;;;;;;;19.70;12.57;;;;;;;;;;6304095;22;20337;-75
2021/01/07 13:29:17;;;;;;;20.42;13.25;;;;;;;;;;6304350;22;20007;-75
2021/01/07 13:31:45;;;;;;;25.33;13.23;;;;;;;;;;6304956;22;20518;-75
2021/01/07 13:34:11;;;;;;;21.63;13.50;;;;;;;;;;6303486;22;20110;-75
2021/01/07 13:36:37;;;;;;;22.15;14.85;;;;;;;;;;6331890;22;19998;-76
2021/01/07 13:39:03;;;;;;;24.77;15.40;;;;;;;;;;6331881;22;20542;-76
2021/01/07 13:41:32;;;;;;;24.08;15.85;;;;;;;;;;6303898;22;20452;-75
2021/01/07 13:43:59;;;;;;;22.52;14.93;;;;;;;;;;6303204;22;20010;-75
2021/01/07 13:46:25;;;;;;;24.65;15.27;;;;;;;;;;6331419;22;19999;-75
2021/01/07 13:49:01;;;;;;;27.98;16.25;;;;;;;;;;6331677;22;20497;-75
2021/01/07 13:51:28;;;;;;;24.70;15.38;;;;;;;;;;6303876;22;20455;-76
2021/01/07 13:53:54;;;;;;;26.27;16.58;;;;;;;;;;6332068;22;20002;-74
2021/01/07 13:56:20;;;;;;;25.20;16.63;;;;;;;;;;6330587;22;19998;-76
2021/01/07 13:58:48;;;;;;;24.75;15.13;;;;;;;;;;6332070;22;20017;-75
2021/01/07 14:01:14;;;;;;;26.25;16.20;;;;;;;;;;6303102;22;20773;-75
2021/01/07 14:03:40;;;;;;;24.25;15.60;;;;;;;;;;6331207;22;20493;-76
2021/01/07 14:06:07;;;;;;;24.50;15.00;;;;;;;;;;6330751;22;20015;-76
2021/01/07 14:08:42;;;;;;;28.10;16.67;;;;;;;;;;6330971;22;20052;-76
2021/01/07 14:11:09;;;;;;;26.08;15.80;;;;;;;;;;6331151;22;19999;-76
2021/01/07 14:13:35;;;;;;;28.20;16.80;;;;;;;;;;6331686;22;20017;-75
2021/01/07 14:16:02;;;;;;;28.63;15.98;;;;;;;;;;6303081;22;20006;-75
2021/01/07 14:18:28;;;;;;;24.58;16.30;;;;;;;;;;6303121;22;19998;-75
2021/01/07 14:20:58;;;;;;;27.30;17.17;;;;;;;;;;6330937;22;20076;-74
2021/01/07 14:23:25;;;;;;;32.25;18.52;;;;;;;;;;6332016;22;20007;-75